Flight Track Log - Related Links

Times and Time Zones

All times are in EDT time to prevent confusion due to time zone crossing. See the N826CH flight status page for this flight to view local times or setup timezone preferences in your user account.

Time Position Orientation Groundspeed Altitude Reporting Facility
EDT Latitude Longitude Course Direction KTS MPH feet Rate Location/Type
Sat 03:36:05 PM 45.1744 -122.7836 180° South 141 162 3,400  Level Seattle Center
Sat 03:36:31 PM 45.1575 -122.7836 180° South 144 166 3,900 759 Climbing Seattle Center
Sat 03:37:32 PM 45.1261 -122.7825 179° South 135 155 4,500 787 Climbing Seattle Center
Sat 03:38:33 PM 45.0925 -122.7958 196° South 131 151 5,500 885 Climbing Seattle Center
Sat 03:39:34 PM 45.0592 -122.7964 181° South 129 148 6,300 738 Climbing Seattle Center
Sat 03:40:35 PM 45.0225 -122.7883 171° South 133 153 7,000 590 Climbing Seattle Center
Sat 03:41:36 PM 44.9711 -122.7803 174° South 149 171 7,500 443 Climbing Seattle Center
Sat 03:42:37 PM 44.9269 -122.7711 172° South 155 178 7,900 393 Climbing Seattle Center
Sat 03:43:38 PM 44.8828 -122.7617 171° South 158 182 8,300 393 Climbing Seattle Center
Sat 03:44:39 PM 44.8389 -122.7506 170° South 158 182 8,700 393 Climbing Seattle Center
Sat 03:45:40 PM 44.7942 -122.7408 171° South 159 183 9,100 443 Climbing Seattle Center
Sat 03:46:41 PM 44.7481 -122.7319 172° South 161 185 9,600 443 Climbing Seattle Center
Sat 03:47:42 PM 44.7025 -122.7211 170° South 162 186 10,000 393 Climbing Seattle Center
Sat 03:48:43 PM 44.6553 -122.7106 171° South 168 193 10,400 393 Climbing Seattle Center
Sat 03:49:44 PM 44.6086 -122.7006 171° South 168 193 10,800 246 Climbing Seattle Center
Sat 03:50:45 PM 44.5589 -122.6903 172° South 168 193 10,900 98 Climbing Seattle Center
Sat 03:51:46 PM 44.5097 -122.6806 172° South 175 201 11,000  Climbing Seattle Center
Sat 03:52:47 PM 44.4608 -122.6681 170° South 176 203 10,900 -49 Descending Seattle Center
Sat 03:53:48 PM 44.4106 -122.6575 171° South 178 205 10,900 49 Level Seattle Center
Sat 03:54:49 PM 44.3617 -122.6464 171° South 179 206 11,000  Climbing Seattle Center
Sat 03:55:50 PM 44.3117 -122.6358 171° South 179 206 10,900 -49 Descending Seattle Center
Sat 03:56:51 PM 44.2619 -122.6258 172° South 179 206 10,900  Level Seattle Center
Sat 03:57:52 PM 44.2119 -122.6144 171° South 180 207 10,900  Level Seattle Center
Sat 03:58:53 PM 44.1622 -122.6036 171° South 180 207 10,900  Level Seattle Center
Sat 03:59:54 PM 44.1128 -122.5925 171° South 180 207 10,900  Level Seattle Center
Sat 04:00:55 PM 44.0544 -122.5792 171° South 180 207 10,900  Level Seattle Center
Sat 04:01:56 PM 44.0044 -122.5689 172° South 180 207 10,900 49 Level Seattle Center
Sat 04:02:57 PM 43.9547 -122.5581 171° South 180 207 11,000 49 Climbing Seattle Center
Sat 04:03:58 PM 43.9047 -122.5475 171° South 180 207 11,000  Level Seattle Center
Sat 04:04:59 PM 43.8539 -122.5369 171° South 181 208 11,000 -49 Level Seattle Center
Sat 04:06:00 PM 43.8047 -122.5256 171° South 181 208 10,900 -49 Descending Seattle Center
Sat 04:07:01 PM 43.7542 -122.5147 171° South 181 208 10,900  Level Seattle Center
Sat 04:08:02 PM 43.7039 -122.5050 172° South 181 208 10,900  Level Seattle Center
Sat 04:09:03 PM 43.6539 -122.4933 170° South 182 209 10,900  Level Seattle Center
Sat 04:10:03 PM 43.6042 -122.4828 171° South 182 209 10,900 50 Level Seattle Center
Sat 04:11:04 PM 43.5544 -122.4733 172° South 182 209 11,000 49 Climbing Seattle Center
Sat 04:12:06 PM 43.5039 -122.4625 171° South 182 209 11,000  Level Seattle Center
Sat 04:13:06 PM 43.4528 -122.4533 173° South 182 209 11,000 -50 Level Seattle Center
Sat 04:14:07 PM 43.4025 -122.4406 170° South 183 211 10,900 -49 Descending Seattle Center
Sat 04:15:08 PM 43.3519 -122.4317 173° South 183 211 10,900 49 Level Seattle Center
Sat 04:16:09 PM 43.3011 -122.4203 171° South 183 211 11,000 49 Climbing Seattle Center
Sat 04:17:10 PM 43.2403 -122.4122 174° South 186 214 11,000 -49 Level Seattle Center
Sat 04:18:11 PM 43.1881 -122.4011 171° South 183 211 10,900  Descending Seattle Center
Sat 04:19:12 PM 43.1406 -122.3881 169° South 182 209 11,000  Climbing Seattle Center
Sat 04:20:13 PM 43.0889 -122.3758 170° South 182 209 10,900 -49 Descending Seattle Center
Sat 04:21:14 PM 43.0364 -122.3658 172° South 182 209 10,900  Level Seattle Center
Sat 04:22:15 PM 42.9856 -122.3589 174° South 182 209 10,900 49 Level Seattle Center
Sat 04:23:16 PM 42.9358 -122.3492 172° South 181 208 11,000 49 Climbing Seattle Center
Sat 04:24:17 PM 42.8867 -122.3364 169° South 182 209 11,000  Level Seattle Center
Sat 04:25:18 PM 42.8342 -122.3258 172° South 183 211 11,000 148 Level Seattle Center
Sat 04:26:19 PM 42.7819 -122.3153 172° South 176 203 11,300 98 Climbing Seattle Center
Sat 04:27:20 PM 42.7319 -122.3072 173° South 179 206 11,200 -98 Descending Seattle Center
Sat 04:28:21 PM 42.6792 -122.2956 171° South 190 219 11,100 -49 Descending Seattle Center
Sat 04:29:22 PM 42.6256 -122.2839 171° South 185 213 11,100 98 Level Seattle Center
Sat 04:30:23 PM 42.5744 -122.2733 171° South 184 212 11,300 49 Climbing Seattle Center
Sat 04:31:24 PM 42.5247 -122.2633 172° South 181 208 11,200 -49 Descending Seattle Center
Sat 04:32:25 PM 42.4753 -122.2519 170° South 188 216 11,200  Level Seattle Center
Sat 04:33:26 PM 42.4253 -122.2431 173° South 186 214 11,200  Level Seattle Center
Sat 04:34:27 PM 42.3744 -122.2325 171° South 185 213 11,200  Level Seattle Center
Sat 04:35:28 PM 42.3239 -122.2225 172° South 186 214 11,200  Level Seattle Center
Sat 04:36:29 PM 42.2622 -122.2092 171° South 186 214 11,200  Level Seattle Center
Sat 04:37:30 PM 42.2111 -122.1989 172° South 187 215 11,200  Level Seattle Center
Sat 04:38:31 PM 42.1606 -122.1883 171° South 187 215 11,200  Level Seattle Center
Sat 04:39:32 PM 42.1097 -122.1767 170° South 187 215 11,200 -98 Level Seattle Center
Sat 04:40:33 PM 42.0581 -122.1647 170° South 187 215 11,000 -49 Descending Seattle Center
Sat 04:41:34 PM 42.0067 -122.1550 172° South 188 216 11,100 49 Climbing Seattle Center
Sat 04:42:35 PM 41.9564 -122.1450 172° South 187 215 11,100  Level Seattle Center
Sat 04:43:36 PM 41.9061 -122.1356 172° South 187 215 11,100 -49 Level Seattle Center
Sat 04:44:37 PM 41.8439 -122.1242 172° South 187 215 11,000 -49 Descending Seattle Center
Sat 04:45:38 PM 41.7925 -122.1136 171° South 187 215 11,000 49 Level Seattle Center
Sat 04:46:39 PM 41.7411 -122.1031 171° South 187 215 11,100  Climbing Seattle Center
Sat 04:47:40 PM 41.6900 -122.0931 172° South 187 215 11,000 -49 Descending Seattle Center
Sat 04:48:41 PM 41.6394 -122.0839 172° South 187 215 11,000 49 Level Seattle Center
Sat 04:49:42 PM 41.5903 -122.0686 167° South 185 213 11,100 49 Climbing Seattle Center
Sat 04:50:43 PM 41.5442 -122.0367 153° Southeast 185 213 11,100  Level Seattle Center
Sat 04:51:45 PM 41.4969 -122.0053 154° Southeast 186 214 11,100 49 Level Seattle Center
Sat 04:52:46 PM 41.4503 -121.9761 155° Southeast 186 214 11,200  Climbing Seattle Center
Sat 04:53:47 PM 41.4006 -121.9531 161° South 186 214 11,100 -49 Descending Seattle Center
Sat 04:54:48 PM 41.3478 -121.9472 175° South 187 215 11,100 -49 Level Seattle Center
Sat 04:55:49 PM 41.2856 -121.9378 173° South 188 216 11,000 49 Descending Seattle Center
Sat 04:56:50 PM 41.2333 -121.9283 172° South 188 216 11,200 98 Climbing Seattle Center
Sat 04:57:51 PM 41.1803 -121.9203 173° South 189 217 11,200 -93 Level Seattle Center
Sat 04:58:59 PM 41.1189 -121.9078 171° South 191 220 11,000 -93 Descending Oakland Center
Sat 05:00:00 PM 41.0664 -121.9000 174° South 192 221 11,000  Level Oakland Center
Sat 05:01:01 PM 41.0131 -121.8903 172° South 192 221 11,000  Level Oakland Center
Sat 05:02:03 PM 40.9597 -121.8819 173° South 192 221 11,000 105 Level Oakland Center
Sat 05:02:55 PM 40.9072 -121.8744 174° South 192 221 11,200  Climbing Seattle Center
Sat 05:03:56 PM 40.8533 -121.8650 172° South 193 222 11,000 -98 Descending Seattle Center
Sat 05:04:57 PM 40.7997 -121.8558 173° South 193 222 11,000  Level Seattle Center
Sat 05:05:58 PM 40.7475 -121.8469 173° South 193 222 11,000  Level Seattle Center
Sat 05:06:59 PM 40.6939 -121.8378 173° South 193 222 11,000  Level Seattle Center
Sat 05:08:10 PM 40.6289 -121.8267 173° South 192 221 11,000  Level Oakland Center
Sat 05:09:12 PM 40.5767 -121.8189 174° South 192 221 11,000  Level Oakland Center
Sat 05:10:13 PM 40.5231 -121.8092 172° South 192 221 11,000  Level Oakland Center
Sat 05:11:14 PM 40.4700 -121.8003 173° South 192 221 11,000  Level Oakland Center
Sat 05:12:16 PM 40.4164 -121.7925 174° South 192 221 11,000  Level Oakland Center
Sat 05:13:17 PM 40.3628 -121.7847 174° South 192 221 11,000 -49 Level Oakland Center
Sat 05:14:18 PM 40.3086 -121.7750 172° South 193 222 10,900 -293 Descending Oakland Center
Sat 05:15:20 PM 40.2528 -121.7642 172° South 197 227 10,400 -585 Descending Oakland Center
Sat 05:16:21 PM 40.1944 -121.7519 171° South 207 238 9,700 -443 Descending Oakland Center
Sat 05:17:22 PM 40.1275 -121.7403 172° South 205 236 9,500 -98 Descending Oakland Center
Sat 05:18:24 PM 40.0744 -121.7297 171° South 196 226 9,500  Level Oakland Center
Sat 05:19:25 PM 40.0231 -121.7192 171° South 192 221 9,500  Level Oakland Center
Sat 05:20:26 PM 39.9708 -121.7100 172° South 192 221 9,500  Level Oakland Center
Sat 05:21:28 PM 39.9189 -121.6992 171° South 191 220 9,500  Level Oakland Center
Sat 05:22:29 PM 39.8667 -121.6889 171° South 191 220 9,500 49 Level Oakland Center
Sat 05:23:30 PM 39.8133 -121.6811 174° South 191 220 9,600  Climbing Oakland Center
Sat 05:24:31 PM 39.7614 -121.6819 181° South 189 217 9,500 -49 Descending Oakland Center
Sat 05:25:33 PM 39.7089 -121.6814 180° South 189 217 9,500  Level Oakland Center
Sat 05:26:34 PM 39.6553 -121.6800 179° South 189 217 9,500  Level Oakland Center
Sat 05:27:35 PM 39.5928 -121.6797 180° South 189 217 9,500  Level Oakland Center
Sat 05:28:36 PM 39.5403 -121.6781 179° South 188 216 9,500  Level Oakland Center
Sat 05:29:38 PM 39.4872 -121.6786 180° South 188 216 9,500  Level Oakland Center
Sat 05:30:39 PM 39.4400 -121.6789 180° South 189 217 9,500  Level Oakland Center
Sat 05:31:40 PM 39.3875 -121.6767 178° South 189 217 9,500  Level Oakland Center
Sat 05:32:42 PM 39.3233 -121.6783 181° South 190 219 9,500  Level Oakland Center
Sat 05:33:43 PM 39.2703 -121.6767 179° South 190 219 9,500  Level Oakland Center
Sat 05:34:44 PM 39.2172 -121.6769 180° South 190 219 9,500  Level Oakland Center
Sat 05:35:46 PM 39.1631 -121.6772 180° South 191 220 9,500  Level Oakland Center
Sat 05:36:47 PM 39.1100 -121.6764 179° South 191 220 9,500  Level Oakland Center
Sat 05:37:48 PM 39.0564 -121.6736 178° South 191 220 9,500  Level Oakland Center
Sat 05:38:50 PM 39.0042 -121.6531 163° South 192 221 9,500  Level Oakland Center
Sat 05:39:51 PM 38.9522 -121.6369 166° South 193 222 9,500  Level Oakland Center
Sat 05:40:52 PM 38.9006 -121.6197 165° South 193 222 9,500 -195 Level Oakland Center
Sat 05:41:54 PM 38.8364 -121.5997 166° South 194 223 9,100 -488 Descending Oakland Center
Sat 05:42:55 PM 38.7794 -121.5803 165° South 206 237 8,500 -689 Descending Oakland Center
Sat 05:43:56 PM 38.7167 -121.5667 170° South 212 244 7,700 -744 Descending Northern Cal TRACON
Sat 05:44:56 PM 38.6667 -121.5500 165° South 212 244 7,000 -632 Descending Northern Cal TRACON
Sat 05:45:50 PM 38.6167 -121.5333 165° South 222 255 6,500 -650 Descending Northern Cal TRACON
Sat 05:46:56 PM 38.5500 -121.5000 159° South 203 234 5,700 -694 Descending Northern Cal TRACON
Sat 05:47:51 PM 38.5000 -121.5000 180° South 196 226 5,100 -678 Descending Northern Cal TRACON
Sat 05:48:51 PM 38.4500 -121.4833 165° South 194 223 4,400 -300 Descending Northern Cal TRACON
Sat 05:49:51 PM 38.4000 -121.4667 165° South 177 204 4,500 100 Climbing Northern Cal TRACON
Sat 05:53:00 PM 38.3102 -121.4330 164° South  Level FlightAware Approximate
Sat 06:00:00 PM 38.5125 -121.4935 165° South  Level Estimated
Sat 06:01:00 PM 38.5125 -121.4935 155° Southeast  Level Estimated
Sat 06:02:00 PM 38.5125 -121.4935 169° South  Level Estimated
Sat 06:03:00 PM 38.5125 -121.4935 166° South  Level Estimated
Sat 06:04:00 PM 38.5125 -121.4935 166° South  Level Estimated
Sat 06:05:00 PM 38.5125 -121.4935 166° South  Level Estimated
Sat 06:06:00 PM 38.5125 -121.4935 163° South  Level Estimated
Sat 06:07:00 PM 38.5125 -121.4935 155° Southeast  Level Estimated
Sat 06:08:00 PM 38.5125 -121.4935 169° South  Level Estimated
Sat 06:09:00 PM 38.5125 -121.4935 166° South  Level Estimated
Sat 06:10:00 PM 38.5125 -121.4935 166° South  Level Estimated
Sat 06:11:00 PM 38.5125 -121.4935 166° South  Level Estimated
Sat 06:12:00 PM 38.5125 -121.4935 163° South  Level Estimated
Sat 06:13:00 PM 38.5125 -121.4935 155° Southeast  Level Estimated
Sat 06:14:00 PM 38.5125 -121.4935 169° South  Level Estimated
Sat 06:15:00 PM 38.5125 -121.4935 166° South  Level Estimated
Sat 06:16:00 PM 38.5125 -121.4935 166° South  Level Estimated
Sat 06:17:00 PM 38.5125 -121.4935 166° South  Level Estimated
Sat 06:18:00 PM 38.5125 -121.4935 163° South  Level Estimated

Login

Don't have an account? Register now (free) for customized features, flight alerts, and more!